Cape May, New Jersey
Current Conditions -  °F | °C
As of 9:15 AM on Thursday 23 Oct 2014 (Local Time) from KWWD Reporting Station
Overcast Overcast  
Wind Chill: 54°   Ceiling: 1700
Heat Index: 54°   Visibility: 10mi
Dew Point: 45°   Wind: 14mph
Humidity: 72%   Direction: 320°NW
Pressure: 29.76"   Gusts: 22mph
Location:  38.94°N, 74.91°W
Report Text: KWWD 231315Z AUTO 32012G19KT 10SM BKN017 BKN023 OVC028 12/07 A2976 RMK AO1
Loading
Personal Weather Stations






























Interactive Weather Map
Tropical Storm Tracking
New forecast layout! Learn more

10-Day Weather Forecast

Advertisements
Track Severe Weather on mobile